Time;durP1;ratioP1;P1;durP2;ratioP2;P2;SDS_P1;SDS_P2;PMS_P1;PMS_P2;Temp;Humidity;BMP_temperature;BMP_pressure;BME280_temperature;BME280_humidity;BME280_pressure;Samples;Min_cycle;Max_cycle;Signal;HPM_P1;HPM_P2
2021/12/29 00:00:48;;;;;;;825.93;749.07;;;9.30;99.90;;;;;;4974795;28;20483;-83
2021/12/29 00:03:15;;;;;;;822.10;748.50;;;9.30;99.90;;;;;;4974388;28;20470;-83
2021/12/29 00:05:47;;;;;;;816.30;744.30;;;9.40;99.90;;;;;;4974641;28;20451;-83
2021/12/29 00:08:20;;;;;;;808.53;736.47;;;9.40;99.90;;;;;;4974668;28;20510;-83
2021/12/29 00:10:55;;;;;;;811.00;738.73;;;9.40;99.90;;;;;;4975235;28;20516;-84
2021/12/29 00:13:22;;;;;;;818.63;744.87;;;9.40;99.90;;;;;;4975815;28;20558;-83
2021/12/29 00:15:57;;;;;;;818.60;745.77;;;9.30;99.90;;;;;;4979033;28;20549;-83
2021/12/29 00:18:25;;;;;;;813.27;740.70;;;9.40;99.90;;;;;;4978385;28;20454;-83
2021/12/29 00:20:52;;;;;;;826.47;751.00;;;9.30;99.90;;;;;;4978364;28;20485;-83
2021/12/29 00:23:20;;;;;;;844.87;767.47;;;9.30;99.90;;;;;;4977377;28;20852;-82
2021/12/29 00:25:48;;;;;;;854.87;775.07;;;9.30;99.90;;;;;;4977778;28;20455;-82
2021/12/29 00:28:15;;;;;;;858.03;777.37;;;9.30;99.90;;;;;;4977414;28;20482;-82
2021/12/29 00:30:42;;;;;;;842.57;762.20;;;9.30;99.90;;;;;;4978117;28;20455;-82
2021/12/29 00:33:08;;;;;;;843.07;763.07;;;9.30;99.90;;;;;;4977881;28;20482;-82
2021/12/29 00:35:38;;;;;;;819.03;741.67;;;9.30;99.90;;;;;;4978311;28;20463;-83
2021/12/29 00:38:06;;;;;;;805.80;726.60;;;9.30;99.90;;;;;;4977667;28;20501;-82
2021/12/29 00:40:35;;;;;;;823.90;742.40;;;9.30;99.90;;;;;;4977934;28;20841;-82
2021/12/29 00:43:05;;;;;;;834.63;753.30;;;9.30;99.90;;;;;;4977457;28;20482;-83
2021/12/29 00:45:33;;;;;;;828.67;747.90;;;9.30;99.90;;;;;;4978254;28;20510;-82
2021/12/29 00:48:00;;;;;;;812.23;732.50;;;9.20;99.90;;;;;;4977724;28;20486;-82
2021/12/29 00:50:27;;;;;;;819.23;739.00;;;9.40;99.90;;;;;;4978402;28;20458;-82
2021/12/29 00:52:54;;;;;;;838.90;756.10;;;9.30;99.90;;;;;;4978188;28;20474;-82
2021/12/29 00:55:20;;;;;;;765.87;691.10;;;9.30;99.90;;;;;;4978747;28;20454;-83
2021/12/29 00:57:51;;;;;;;890.00;802.50;;;9.30;99.90;;;;;;4978285;28;20455;-82
2021/12/29 01:00:20;;;;;;;888.43;800.53;;;9.30;99.90;;;;;;4978061;28;20454;-83
2021/12/29 01:02:48;;;;;;;895.20;808.77;;;9.30;99.90;;;;;;4977766;28;20481;-83
2021/12/29 01:05:17;;;;;;;898.80;812.93;;;9.40;99.90;;;;;;4977975;28;20454;-83
2021/12/29 01:07:45;;;;;;;859.20;774.37;;;9.30;99.90;;;;;;4977730;28;20471;-83
2021/12/29 01:10:13;;;;;;;895.53;807.40;;;9.40;99.90;;;;;;4977961;28;20501;-82
2021/12/29 01:12:46;;;;;;;902.00;813.97;;;9.30;99.90;;;;;;4977961;28;20487;-83
2021/12/29 01:15:17;;;;;;;902.33;813.47;;;9.30;99.90;;;;;;4978098;28;20459;-82
2021/12/29 01:17:44;;;;;;;892.03;802.63;;;9.30;99.90;;;;;;4977751;28;20474;-82
2021/12/29 01:20:11;;;;;;;898.57;808.30;;;9.40;99.90;;;;;;4978049;28;20845;-82
2021/12/29 01:22:38;;;;;;;880.73;793.33;;;9.30;99.90;;;;;;4977716;28;20555;-82
2021/12/29 01:25:06;;;;;;;886.27;797.97;;;9.40;99.90;;;;;;4976945;28;20459;-83
2021/12/29 01:27:34;;;;;;;893.00;803.10;;;9.40;99.90;;;;;;4977549;28;20836;-82
2021/12/29 01:30:01;;;;;;;902.27;811.53;;;9.40;99.90;;;;;;4977547;28;20463;-82
2021/12/29 01:32:29;;;;;;;903.87;813.47;;;9.30;99.90;;;;;;4977270;28;20471;-82
2021/12/29 01:34:55;;;;;;;890.63;803.23;;;9.40;99.90;;;;;;4978242;28;20459;-82
2021/12/29 01:37:22;;;;;;;894.10;805.63;;;9.40;99.90;;;;;;4977431;28;20445;-82
2021/12/29 01:39:49;;;;;;;894.20;802.90;;;9.40;99.90;;;;;;4976716;28;20466;-82
2021/12/29 01:42:16;;;;;;;900.37;809.33;;;9.40;99.90;;;;;;4977802;28;20478;-82
2021/12/29 01:44:42;;;;;;;916.83;823.57;;;9.40;99.90;;;;;;4977262;28;20470;-82
2021/12/29 01:47:09;;;;;;;899.47;807.83;;;9.40;99.90;;;;;;4977841;28;20551;-82
2021/12/29 01:49:38;;;;;;;898.10;807.40;;;9.30;99.90;;;;;;4976610;28;20638;-82
2021/12/29 01:52:11;;;;;;;883.97;795.87;;;9.40;99.90;;;;;;4977213;28;20461;-82
2021/12/29 01:54:39;;;;;;;837.37;754.37;;;9.30;99.90;;;;;;4977986;28;20465;-81
2021/12/29 01:57:10;;;;;;;869.33;783.67;;;9.40;99.90;;;;;;4977834;28;20826;-82
2021/12/29 01:59:37;;;;;;;871.20;786.40;;;9.40;99.90;;;;;;4977202;28;20458;-82
2021/12/29 02:02:04;;;;;;;861.73;776.77;;;9.40;99.90;;;;;;4976857;28;20816;-83
2021/12/29 02:04:31;;;;;;;852.00;770.50;;;9.30;99.90;;;;;;4977215;28;20506;-83
2021/12/29 02:07:00;;;;;;;842.50;760.07;;;9.30;99.90;;;;;;4976758;28;20462;-83
2021/12/29 02:09:26;;;;;;;837.13;757.37;;;9.40;99.90;;;;;;4976550;28;20458;-83
2021/12/29 02:11:53;;;;;;;836.43;758.20;;;9.30;99.90;;;;;;4976568;28;20840;-83
2021/12/29 02:14:20;;;;;;;850.73;772.00;;;9.30;99.90;;;;;;4977342;28;20855;-83
2021/12/29 02:16:47;;;;;;;834.77;756.57;;;9.30;99.90;;;;;;4976735;28;20522;-83
2021/12/29 02:19:14;;;;;;;830.03;752.43;;;9.30;99.90;;;;;;4977261;28;20493;-83
2021/12/29 02:21:53;;;;;;;829.20;752.30;;;9.20;99.90;;;;;;4977782;28;20451;-83
2021/12/29 02:24:23;;;;;;;801.03;725.80;;;9.30;99.90;;;;;;4977432;28;20482;-83
2021/12/29 02:26:51;;;;;;;805.60;731.77;;;9.30;99.90;;;;;;4977935;28;20454;-83
2021/12/29 02:29:19;;;;;;;800.70;726.87;;;9.30;99.90;;;;;;4977511;28;20459;-84
2021/12/29 02:31:47;;;;;;;791.63;719.17;;;9.20;99.90;;;;;;4977329;28;20463;-83
2021/12/29 02:34:16;;;;;;;797.60;726.20;;;9.30;99.90;;;;;;4977489;28;20475;-83
2021/12/29 02:36:45;;;;;;;766.37;697.40;;;9.30;99.90;;;;;;4976964;28;20458;-83
2021/12/29 02:39:14;;;;;;;777.97;707.20;;;9.20;99.90;;;;;;4977185;28;20465;-83
2021/12/29 02:41:44;;;;;;;797.33;725.47;;;9.30;99.90;;;;;;4976399;28;20490;-83
2021/12/29 02:44:17;;;;;;;789.87;716.87;;;9.30;99.90;;;;;;4976987;28;20502;-83
2021/12/29 02:46:44;;;;;;;773.37;704.60;;;9.30;99.90;;;;;;4977100;28;20462;-83
2021/12/29 02:49:11;;;;;;;756.27;687.87;;;9.20;99.90;;;;;;4977923;28;20489;-84
2021/12/29 02:51:41;;;;;;;742.63;675.13;;;9.20;99.90;;;;;;4977592;28;20455;-84
2021/12/29 02:54:09;;;;;;;749.07;681.73;;;9.20;99.90;;;;;;4977484;28;20475;-84
2021/12/29 02:56:36;;;;;;;725.20;661.00;;;9.20;99.90;;;;;;4976330;28;20970;-84
2021/12/29 02:59:03;;;;;;;730.27;665.10;;;9.20;99.90;;;;;;4977873;28;20509;-84
2021/12/29 03:01:31;;;;;;;738.43;673.73;;;9.20;99.90;;;;;;4977043;28;20455;-84
2021/12/29 03:03:59;;;;;;;723.83;658.80;;;9.20;99.90;;;;;;4977025;28;20475;-83
2021/12/29 03:06:26;;;;;;;732.97;666.53;;;9.10;99.90;;;;;;4976546;28;20466;-83
2021/12/29 03:08:53;;;;;;;733.03;666.40;;;9.20;99.90;;;;;;4976664;28;20845;-84
2021/12/29 03:11:22;;;;;;;737.97;670.57;;;9.20;99.90;;;;;;4976202;28;20994;-83
2021/12/29 03:13:48;;;;;;;743.23;675.10;;;9.20;99.90;;;;;;4977586;28;20475;-83
2021/12/29 03:16:15;;;;;;;741.47;673.97;;;9.20;99.90;;;;;;4976946;28;20447;-83
2021/12/29 03:18:43;;;;;;;733.97;668.33;;;9.10;99.90;;;;;;4978221;28;20442;-83
2021/12/29 03:21:10;;;;;;;735.23;669.63;;;9.10;99.90;;;;;;4976684;28;20455;-83
2021/12/29 03:23:38;;;;;;;740.63;674.03;;;9.00;99.90;;;;;;4976735;28;20863;-84
2021/12/29 03:26:06;;;;;;;747.60;681.90;;;9.20;99.90;;;;;;4976922;28;20455;-83
2021/12/29 03:28:35;;;;;;;744.63;678.60;;;9.10;99.90;;;;;;4977311;28;20486;-83
2021/12/29 03:31:02;;;;;;;742.67;677.10;;;9.10;99.90;;;;;;4977029;28;20447;-79
2021/12/29 03:33:29;;;;;;;753.10;686.97;;;9.20;99.90;;;;;;4981296;28;20841;-82
2021/12/29 03:36:01;;;;;;;768.53;700.53;;;9.10;99.90;;;;;;4981107;28;20462;-83
2021/12/29 03:38:30;;;;;;;757.37;690.20;;;9.10;99.90;;;;;;4975662;28;20482;-84
2021/12/29 03:41:00;;;;;;;748.27;681.73;;;9.10;99.90;;;;;;4971569;28;20448;-84
2021/12/29 03:43:28;;;;;;;754.13;686.77;;;9.00;99.90;;;;;;4957847;28;20517;-84
2021/12/29 03:45:57;;;;;;;771.07;703.90;;;9.20;99.90;;;;;;4975091;28;20451;-84
2021/12/29 03:48:26;;;;;;;763.20;694.57;;;9.10;99.90;;;;;;4974784;28;20463;-83
2021/12/29 03:50:56;;;;;;;771.70;702.50;;;9.10;99.90;;;;;;4977947;28;20454;-83
2021/12/29 03:53:29;;;;;;;774.67;704.73;;;9.10;99.90;;;;;;4978339;28;20482;-84
2021/12/29 03:55:57;;;;;;;777.27;708.57;;;9.00;99.90;;;;;;4977657;28;20846;-84
2021/12/29 03:58:28;;;;;;;779.07;710.10;;;9.00;99.90;;;;;;4976116;28;20446;-84
2021/12/29 04:01:07;;;;;;;771.60;702.63;;;9.10;99.90;;;;;;4978807;28;20454;-83
2021/12/29 04:03:37;;;;;;;782.87;714.07;;;9.00;99.90;;;;;;4976574;28;20474;-83
2021/12/29 04:06:04;;;;;;;789.03;719.80;;;9.00;99.90;;;;;;4977036;28;20462;-83
2021/12/29 04:08:34;;;;;;;786.00;716.80;;;9.00;99.90;;;;;;4978390;28;20490;-83
2021/12/29 04:11:01;;;;;;;794.53;725.47;;;9.10;99.90;;;;;;4978170;28;20451;-84
2021/12/29 04:13:29;;;;;;;799.57;730.87;;;9.00;99.90;;;;;;4977698;28;20475;-83
2021/12/29 04:15:58;;;;;;;810.17;740.87;;;9.00;99.90;;;;;;4977310;28;20458;-83
2021/12/29 04:18:30;;;;;;;817.50;747.93;;;9.10;99.90;;;;;;4977089;28;20451;-83
2021/12/29 04:21:00;;;;;;;828.90;760.00;;;9.00;99.90;;;;;;4977200;28;20921;-83
2021/12/29 04:23:31;;;;;;;831.87;763.10;;;9.00;99.90;;;;;;4977572;28;20828;-83
2021/12/29 04:26:01;;;;;;;848.60;779.87;;;9.00;99.90;;;;;;4977363;28;20534;-83
2021/12/29 04:28:28;;;;;;;860.97;790.23;;;9.00;99.90;;;;;;4975536;28;20657;-83
2021/12/29 04:30:58;;;;;;;859.23;789.60;;;9.00;99.90;;;;;;4976313;28;20966;-84
2021/12/29 04:33:27;;;;;;;853.77;785.83;;;9.00;99.90;;;;;;4978326;28;20485;-83
2021/12/29 04:35:54;;;;;;;849.10;780.57;;;8.90;99.90;;;;;;4977418;28;20454;-84
2021/12/29 04:38:24;;;;;;;847.70;779.13;;;9.00;99.90;;;;;;4976524;28;20462;-83
2021/12/29 04:40:51;;;;;;;857.63;787.03;;;9.00;99.90;;;;;;4975938;28;20450;-83
2021/12/29 04:43:19;;;;;;;861.10;789.80;;;9.00;99.90;;;;;;4976624;28;20479;-83
2021/12/29 04:45:45;;;;;;;865.57;793.63;;;9.00;99.90;;;;;;4976383;28;20966;-84
2021/12/29 04:48:15;;;;;;;870.00;797.53;;;9.00;99.90;;;;;;4976322;28;20490;-83
2021/12/29 04:50:50;;;;;;;861.53;789.57;;;9.00;99.90;;;;;;4977527;28;20458;-83
2021/12/29 04:53:19;;;;;;;870.27;796.90;;;9.10;99.90;;;;;;4977906;28;20907;-83
2021/12/29 04:55:50;;;;;;;856.97;785.10;;;9.10;99.90;;;;;;4977313;28;20458;-83
2021/12/29 04:58:18;;;;;;;859.57;788.00;;;9.00;99.90;;;;;;4977798;28;20455;-83
2021/12/29 05:00:46;;;;;;;858.43;788.47;;;9.10;99.90;;;;;;4981186;28;20459;-83
2021/12/29 05:03:17;;;;;;;851.90;781.60;;;9.10;99.90;;;;;;4980666;28;20772;-83
2021/12/29 05:05:56;;;;;;;851.30;781.30;;;9.10;99.90;;;;;;4969419;28;20825;-83
2021/12/29 05:08:32;;;;;;;856.93;786.53;;;9.10;99.90;;;;;;4973546;28;20987;-83
2021/12/29 05:11:00;;;;;;;840.27;772.27;;;9.10;99.90;;;;;;4983601;28;20458;-83
2021/12/29 05:13:28;;;;;;;828.23;760.63;;;9.20;99.90;;;;;;4980154;28;20885;-83
2021/12/29 05:15:56;;;;;;;835.17;768.37;;;9.10;99.90;;;;;;4979514;28;20466;-83
2021/12/29 05:18:26;;;;;;;839.20;772.27;;;9.10;99.90;;;;;;4979636;28;20458;-84
2021/12/29 05:20:56;;;;;;;823.93;758.83;;;9.20;99.90;;;;;;4980838;28;20461;-83
2021/12/29 05:23:24;;;;;;;827.80;764.47;;;9.30;99.90;;;;;;4979748;28;20486;-84
2021/12/29 05:25:52;;;;;;;812.07;751.07;;;9.20;99.90;;;;;;4980016;28;20451;-83
2021/12/29 05:28:19;;;;;;;839.73;775.27;;;9.30;99.90;;;;;;4980159;28;20474;-83
2021/12/29 05:30:51;;;;;;;842.43;777.00;;;9.30;99.90;;;;;;4980478;28;20459;-83
2021/12/29 05:33:18;;;;;;;828.40;764.90;;;9.20;99.90;;;;;;4980361;28;20570;-83
2021/12/29 05:35:47;;;;;;;827.87;766.57;;;9.20;99.90;;;;;;4980045;28;20455;-84
2021/12/29 05:38:13;;;;;;;793.70;735.20;;;9.30;99.90;;;;;;4979830;28;20460;-83
2021/12/29 05:40:40;;;;;;;817.20;756.53;;;9.30;99.90;;;;;;4980588;28;20462;-83
2021/12/29 05:43:07;;;;;;;813.13;753.07;;;9.30;99.90;;;;;;4980513;28;20489;-84
2021/12/29 05:45:34;;;;;;;811.43;752.10;;;9.30;99.90;;;;;;4981913;28;20966;-84
2021/12/29 05:48:04;;;;;;;800.50;741.73;;;9.30;99.90;;;;;;4980512;28;20463;-83
2021/12/29 05:50:32;;;;;;;815.73;756.50;;;9.30;99.90;;;;;;4981487;28;20833;-83
2021/12/29 05:53:02;;;;;;;809.90;750.43;;;9.30;99.90;;;;;;4981050;28;20521;-83
2021/12/29 05:55:29;;;;;;;813.90;753.50;;;9.40;99.90;;;;;;4982312;28;20463;-83
2021/12/29 05:58:05;;;;;;;817.00;756.37;;;9.30;99.90;;;;;;4982319;28;20466;-83
2021/12/29 06:01:13;;;;;;;814.40;753.30;;;9.40;99.90;;;;;;4982991;28;20517;-83
2021/12/29 06:06:50;;;;;;;815.83;754.30;;;9.30;99.90;;;;;;4974678;28;20483;-83
2021/12/29 06:09:31;;;;;;;809.47;748.67;;;9.30;99.90;;;;;;4980937;28;20478;-83
2021/12/29 06:15:17;;;;;;;804.37;746.77;;;9.40;99.90;;;;;;4938367;28;20803;-83
2021/12/29 06:21:32;;;;;;;813.17;752.83;;;9.30;99.90;;;;;;4966193;28;20515;-83
2021/12/29 06:24:31;;;;;;;812.13;751.63;;;9.30;99.90;;;;;;4923417;29;20607;-83
2021/12/29 06:30:29;;;;;;;808.43;750.43;;;9.40;99.90;;;;;;4963799;28;20474;-83
2021/12/29 06:33:04;;;;;;;813.77;755.77;;;9.40;99.90;;;;;;4978803;28;20474;-82
2021/12/29 06:35:54;;;;;;;821.70;763.57;;;9.40;99.90;;;;;;4984099;28;20458;-82
2021/12/29 06:41:35;;;;;;;801.60;744.93;;;9.40;99.90;;;;;;4965793;28;20979;-82
2021/12/29 06:44:21;;;;;;;799.50;745.30;;;9.40;99.90;;;;;;4974923;28;20928;-83
2021/12/29 06:46:57;;;;;;;805.53;751.33;;;9.40;99.90;;;;;;4960162;28;20882;-83
2021/12/29 06:49:29;;;;;;;798.10;744.00;;;9.40;99.90;;;;;;4961412;28;20472;-83
2021/12/29 06:52:08;;;;;;;801.70;747.53;;;9.40;99.90;;;;;;4970821;28;20455;-82
2021/12/29 06:54:40;;;;;;;803.33;749.33;;;9.30;99.90;;;;;;4977752;28;20474;-83
2021/12/29 06:57:07;;;;;;;791.77;740.93;;;9.40;99.90;;;;;;4978801;28;20487;-83
2021/12/29 06:59:34;;;;;;;797.90;745.70;;;9.40;99.90;;;;;;4978870;28;20990;-83
2021/12/29 07:02:02;;;;;;;793.33;743.10;;;9.40;99.90;;;;;;4981855;28;20462;-83
2021/12/29 07:04:29;;;;;;;791.83;740.53;;;9.50;99.90;;;;;;4983502;28;20471;-82
2021/12/29 07:06:57;;;;;;;788.37;738.57;;;9.40;99.90;;;;;;4978453;28;20646;-83
2021/12/29 07:09:23;;;;;;;771.03;722.43;;;9.40;99.90;;;;;;4976845;28;20482;-83
2021/12/29 07:11:51;;;;;;;775.30;727.50;;;9.40;99.90;;;;;;4978856;28;20451;-83
2021/12/29 07:14:20;;;;;;;756.33;711.90;;;9.30;99.90;;;;;;4978604;28;20502;-83
2021/12/29 07:16:47;;;;;;;753.57;709.17;;;9.40;99.90;;;;;;4979386;28;20956;-83
2021/12/29 07:19:16;;;;;;;729.87;689.63;;;9.50;99.90;;;;;;4978177;28;20482;-83
2021/12/29 07:21:44;;;;;;;712.93;674.43;;;9.40;99.90;;;;;;4978357;28;20964;-83
2021/12/29 07:24:11;;;;;;;725.37;685.20;;;9.50;99.90;;;;;;4979499;28;20479;-83
2021/12/29 07:26:39;;;;;;;716.77;678.27;;;9.40;99.90;;;;;;4979008;28;20544;-83
2021/12/29 07:29:07;;;;;;;722.30;683.23;;;9.40;99.90;;;;;;4979112;28;20475;-84
2021/12/29 07:31:36;;;;;;;721.17;682.37;;;9.40;99.90;;;;;;4978707;28;20467;-83
2021/12/29 07:34:04;;;;;;;722.10;682.27;;;9.40;99.90;;;;;;4964499;28;20475;-83
2021/12/29 07:36:32;;;;;;;734.00;693.70;;;9.40;99.90;;;;;;4979982;28;20538;-83
2021/12/29 07:38:59;;;;;;;698.10;662.70;;;9.30;99.90;;;;;;4978551;28;20523;-83
2021/12/29 07:41:26;;;;;;;684.40;649.57;;;9.30;99.90;;;;;;4974187;28;20478;-84
2021/12/29 07:43:54;;;;;;;657.37;625.63;;;9.40;99.90;;;;;;4975156;28;20479;-83
2021/12/29 07:46:21;;;;;;;620.80;591.77;;;9.40;99.90;;;;;;4975459;28;20506;-83
2021/12/29 07:51:57;;;;;;;620.77;591.93;;;9.50;99.90;;;;;;4974564;28;20546;-84
2021/12/29 07:54:28;;;;;;;628.13;599.20;;;9.50;99.90;;;;;;4974151;28;20467;-83
2021/12/29 07:56:55;;;;;;;614.07;586.43;;;9.40;99.90;;;;;;4977356;28;20536;-83
2021/12/29 07:59:25;;;;;;;575.27;550.20;;;9.40;99.90;;;;;;4977886;28;20974;-82
2021/12/29 08:01:54;;;;;;;633.23;604.37;;;9.50;99.90;;;;;;4978255;28;20483;-82
2021/12/29 08:04:39;;;;;;;628.70;599.70;;;9.30;99.90;;;;;;4978988;28;20471;-83
2021/12/29 08:07:07;;;;;;;665.70;633.70;;;9.40;99.90;;;;;;4969583;28;20462;-83
2021/12/29 08:09:40;;;;;;;657.70;626.83;;;9.40;99.90;;;;;;4983999;28;20919;-83
2021/12/29 08:12:13;;;;;;;642.20;612.37;;;9.40;99.90;;;;;;4986554;28;20479;-84
2021/12/29 08:14:51;;;;;;;619.20;591.67;;;9.30;99.90;;;;;;4984947;28;20979;-83
2021/12/29 08:17:18;;;;;;;637.40;608.37;;;9.40;99.90;;;;;;4978465;28;20550;-84
2021/12/29 08:19:45;;;;;;;616.87;589.37;;;9.40;99.90;;;;;;4977430;28;20453;-83
2021/12/29 08:22:14;;;;;;;570.90;546.90;;;9.50;99.90;;;;;;4977802;28;20451;-83
2021/12/29 08:24:40;;;;;;;527.83;507.07;;;9.50;99.90;;;;;;4978284;28;20458;-83
2021/12/29 08:27:07;;;;;;;510.27;489.87;;;9.50;99.90;;;;;;4980476;28;20481;-84
2021/12/29 08:29:34;;;;;;;474.97;456.23;;;9.50;99.90;;;;;;4977731;28;20482;-83
2021/12/29 08:32:00;;;;;;;443.60;427.27;;;9.60;99.90;;;;;;4976660;28;20530;-84
2021/12/29 08:34:28;;;;;;;437.23;421.03;;;9.60;99.90;;;;;;4977202;28;20864;-84
2021/12/29 08:36:54;;;;;;;398.30;384.03;;;9.70;99.90;;;;;;4977308;28;20463;-84
2021/12/29 08:39:23;;;;;;;391.53;377.10;;;9.70;99.90;;;;;;4979092;28;20451;-83
2021/12/29 08:41:50;;;;;;;296.40;286.23;;;9.70;99.90;;;;;;4979502;28;20454;-84
2021/12/29 08:44:18;;;;;;;303.80;293.60;;;9.70;99.90;;;;;;4979739;28;20830;-83
2021/12/29 08:46:46;;;;;;;184.33;177.43;;;9.70;99.90;;;;;;4980252;28;20450;-83
2021/12/29 08:49:17;;;;;;;178.90;172.40;;;9.70;99.90;;;;;;4980953;28;20491;-83
2021/12/29 08:51:43;;;;;;;225.27;217.33;;;9.80;99.90;;;;;;4982468;28;20483;-82
2021/12/29 08:54:28;;;;;;;;;;;;;;;;;;;;;
2021/12/29 08:57:06;;;;;;;160.53;154.50;;;9.80;99.90;;;;;;4975226;28;20459;-84
2021/12/29 08:59:33;;;;;;;85.70;81.90;;;9.90;99.90;;;;;;4981790;28;20450;-83
2021/12/29 09:02:00;;;;;;;75.13;71.63;;;9.90;99.90;;;;;;4981192;28;20542;-84
2021/12/29 09:04:27;;;;;;;76.13;72.80;;;9.90;99.90;;;;;;4981348;28;20485;-85
2021/12/29 09:06:53;;;;;;;41.70;39.33;;;9.90;99.90;;;;;;4981361;28;20458;-84
2021/12/29 09:09:20;;;;;;;62.17;59.47;;;9.90;99.90;;;;;;4980347;28;20486;-84
2021/12/29 09:11:47;;;;;;;90.27;86.47;;;9.90;99.90;;;;;;4980652;28;20470;-84
2021/12/29 09:14:15;;;;;;;77.77;74.57;;;9.90;99.90;;;;;;4980968;28;20477;-84
2021/12/29 09:16:43;;;;;;;94.87;90.17;;;9.90;99.90;;;;;;4980251;28;20466;-84
2021/12/29 09:19:12;;;;;;;103.60;98.77;;;10.00;99.90;;;;;;4981309;28;20451;-82
2021/12/29 09:21:42;;;;;;;142.23;135.93;;;10.00;99.90;;;;;;4981870;28;20486;-82
2021/12/29 09:24:09;;;;;;;144.73;138.57;;;10.00;99.90;;;;;;4981884;28;20503;-82
2021/12/29 09:26:36;;;;;;;163.33;156.73;;;10.00;99.90;;;;;;4980710;28;20451;-84
2021/12/29 09:29:03;;;;;;;143.20;136.23;;;10.10;99.90;;;;;;4981078;28;20447;-82
2021/12/29 09:31:32;;;;;;;157.60;151.15;;;10.10;99.90;;;;;;4979246;28;20474;-83
2021/12/29 09:33:58;;;;;;;75.73;72.27;;;10.20;99.90;;;;;;4980983;28;20216;-82
2021/12/29 09:36:25;;;;;;;52.07;49.27;;;10.30;99.90;;;;;;4981014;28;20459;-82
2021/12/29 09:38:52;;;;;;;59.50;56.47;;;10.20;99.90;;;;;;4980118;28;20734;-82
2021/12/29 09:41:20;;;;;;;63.10;60.13;;;10.20;99.90;;;;;;4979237;28;20459;-82
2021/12/29 09:43:48;;;;;;;50.87;48.27;;;10.30;99.90;;;;;;4979478;28;20477;-82
2021/12/29 09:46:17;;;;;;;80.17;76.60;;;10.30;99.90;;;;;;4977877;28;20831;-81
2021/12/29 09:48:47;;;;;;;73.67;69.43;;;10.30;99.90;;;;;;4979764;28;20462;-82
2021/12/29 09:51:15;;;;;;;85.10;81.40;;;10.30;99.90;;;;;;4979941;28;20538;-82
2021/12/29 09:53:42;;;;;;;97.97;93.57;;;10.30;99.90;;;;;;4980164;28;20533;-83
2021/12/29 09:56:10;;;;;;;61.20;58.00;;;10.30;99.90;;;;;;4980548;28;20447;-83
2021/12/29 09:58:38;;;;;;;57.10;53.90;;;10.40;99.90;;;;;;4978236;28;20985;-83
2021/12/29 10:01:07;;;;;;;53.20;50.40;;;10.50;99.90;;;;;;4980295;28;20451;-83
2021/12/29 10:03:35;;;;;;;55.80;52.97;;;10.50;99.90;;;;;;4979306;28;20698;-83
2021/12/29 10:06:06;;;;;;;65.67;62.37;;;10.60;99.90;;;;;;4978989;28;20455;-82
2021/12/29 10:08:35;;;;;;;45.80;43.17;;;10.60;99.90;;;;;;4979102;28;20458;-82
2021/12/29 10:11:05;;;;;;;57.90;54.97;;;10.70;99.90;;;;;;4978961;28;20475;-82
2021/12/29 10:13:33;;;;;;;55.40;52.47;;;10.80;99.90;;;;;;4979656;28;20475;-82
2021/12/29 10:16:05;;;;;;;38.37;36.17;;;10.80;99.90;;;;;;4979403;28;20550;-82
2021/12/29 10:18:34;;;;;;;52.33;49.13;;;10.90;99.90;;;;;;4978196;28;20461;-82
2021/12/29 10:21:04;;;;;;;47.67;44.57;;;11.00;99.90;;;;;;4979875;28;20454;-83
2021/12/29 10:27:33;;;;;;;41.53;39.20;;;11.10;99.90;;;;;;4914779;28;20880;-85
2021/12/29 10:30:55;;;;;;;35.27;32.27;;;11.10;99.90;;;;;;4965156;28;20485;-85
2021/12/29 10:34:00;;;;;;;33.87;31.03;;;11.20;99.90;;;;;;4921202;29;20481;-85
2021/12/29 11:05:15;;;;;;;110.90;106.53;;;10.50;99.90;;;;;;5014060;23;20486;-86
2021/12/29 11:07:52;;;;;;;123.47;118.70;;;10.70;99.90;;;;;;4990281;28;20509;-85
2021/12/29 11:14:31;;;;;;;77.93;73.83;;;11.00;99.90;;;;;;4972502;28;20529;-85
2021/12/29 11:17:39;;;;;;;48.73;46.07;;;11.10;99.90;;;;;;5003925;28;20537;-86
2021/12/29 11:20:31;;;;;;;39.57;36.77;;;11.20;99.90;;;;;;4997175;28;20494;-85
2021/12/29 11:23:59;;;;;;;30.67;28.53;;;11.40;99.90;;;;;;4983489;28;20475;-85
2021/12/29 11:26:52;;;;;;;22.90;21.10;;;11.40;99.90;;;;;;4959706;28;20470;-85
2021/12/29 11:29:59;;;;;;;17.27;15.33;;;11.50;99.90;;;;;;5002232;28;20454;-84
2021/12/29 11:32:40;;;;;;;15.67;14.20;;;11.50;99.90;;;;;;4981364;28;20459;-83
2021/12/29 11:35:25;;;;;;;13.77;11.30;;;11.40;99.90;;;;;;4984285;28;20525;-86
2021/12/29 11:38:00;;;;;;;18.10;12.33;;;11.50;99.90;;;;;;4998730;28;20454;-86
2021/12/29 11:40:57;;;;;;;13.10;11.90;;;11.40;99.90;;;;;;4996830;28;20488;-86
2021/12/29 11:43:29;;;;;;;15.83;14.43;;;11.40;99.90;;;;;;4997698;28;20887;-86
2021/12/29 11:49:06;;;;;;;8.60;7.80;;;11.50;99.90;;;;;;4976248;28;20443;-86
2021/12/29 11:58:42;;;;;;;13.30;12.20;;;11.30;99.90;;;;;;4975580;28;20549;-86
2021/12/29 12:01:25;;;;;;;25.80;24.20;;;11.10;99.90;;;;;;4976302;28;20525;-86
2021/12/29 12:04:33;;;;;;;42.10;40.00;;;11.10;99.90;;;;;;4994484;28;20488;-86
2021/12/29 12:07:37;;;;;;;28.63;27.20;;;10.80;99.90;;;;;;4985957;28;20797;-86
2021/12/29 12:11:02;;;;;;;47.63;45.00;;;10.90;99.90;;;;;;4975242;28;20458;-86
2021/12/29 12:14:14;;;;;;;;;;;;;;;;;;;;;
2021/12/29 12:17:18;;;;;;;64.00;60.90;;;10.90;99.90;;;;;;5000708;28;20509;-86
2021/12/29 12:19:46;;;;;;;67.23;64.07;;;10.80;99.90;;;;;;5002791;28;20457;-86
2021/12/29 12:22:16;;;;;;;32.63;30.93;;;10.80;99.90;;;;;;5002819;28;20450;-84
2021/12/29 12:24:57;;;;;;;38.83;36.93;;;10.70;99.90;;;;;;4995997;28;20451;-86
2021/12/29 12:27:33;;;;;;;41.63;39.63;;;10.60;99.90;;;;;;4991490;28;20478;-86
2021/12/29 12:30:06;;;;;;;52.20;49.37;;;10.60;99.90;;;;;;5000325;28;20950;-86
2021/12/29 12:32:42;;;;;;;36.03;34.13;;;10.60;99.90;;;;;;4981093;28;20561;-86
2021/12/29 12:35:13;;;;;;;29.93;28.63;;;10.50;99.90;;;;;;4981644;28;20454;-86
2021/12/29 12:37:42;;;;;;;72.20;69.30;;;10.60;99.90;;;;;;4982427;28;20465;-86
2021/12/29 12:40:14;;;;;;;88.90;85.63;;;10.50;99.90;;;;;;5000409;28;20510;-85
2021/12/29 12:43:06;;;;;;;54.83;52.30;;;10.50;99.90;;;;;;5001340;28;20474;-86
2021/12/29 12:45:44;;;;;;;51.03;48.80;;;10.50;99.90;;;;;;4984800;28;20461;-86
2021/12/29 12:48:23;;;;;;;70.50;67.20;;;10.50;99.90;;;;;;4988103;28;20450;-85
2021/12/29 12:50:52;;;;;;;148.17;142.33;;;10.50;99.90;;;;;;4998911;28;20449;-86
2021/12/29 12:53:31;;;;;;;139.57;131.03;;;10.60;99.90;;;;;;4997836;28;20478;-86
2021/12/29 12:56:00;;;;;;;151.23;145.17;;;10.60;99.90;;;;;;4999655;28;20453;-86
2021/12/29 12:58:30;;;;;;;137.67;132.97;;;10.50;99.90;;;;;;5001692;28;20459;-86
2021/12/29 13:01:03;;;;;;;201.23;194.13;;;10.50;99.90;;;;;;5004394;28;20509;-85
2021/12/29 13:03:34;;;;;;;157.77;152.27;;;10.50;99.90;;;;;;5003924;28;20474;-86
2021/12/29 13:06:04;;;;;;;177.30;171.10;;;10.40;99.90;;;;;;5005187;28;20490;-85
2021/12/29 13:08:36;;;;;;;211.47;204.33;;;10.40;99.90;;;;;;5004968;28;20484;-85
2021/12/29 13:11:07;;;;;;;200.33;193.83;;;10.40;99.90;;;;;;5007644;28;20872;-85
2021/12/29 13:13:36;;;;;;;207.60;200.53;;;10.40;99.90;;;;;;5005069;28;20476;-85
2021/12/29 13:16:06;;;;;;;204.97;198.17;;;10.30;99.90;;;;;;5002959;28;20446;-85
2021/12/29 13:18:36;;;;;;;225.27;217.93;;;10.20;99.90;;;;;;5003191;28;20462;-85
2021/12/29 13:21:12;;;;;;;250.03;241.60;;;10.20;99.90;;;;;;5001582;28;20474;-85
2021/12/29 13:23:40;;;;;;;280.03;269.87;;;10.20;99.90;;;;;;4997117;28;20473;-86
2021/12/29 13:26:11;;;;;;;286.47;276.70;;;10.10;99.90;;;;;;4995542;28;20485;-86
2021/12/29 13:28:39;;;;;;;376.50;362.40;;;10.10;99.90;;;;;;4995292;28;20947;-86
2021/12/29 13:31:30;;;;;;;379.40;365.63;;;10.10;99.90;;;;;;4996387;28;20489;-86
2021/12/29 13:33:59;;;;;;;465.87;446.77;;;10.00;99.90;;;;;;4996511;28;20493;-86
2021/12/29 13:36:28;;;;;;;507.87;487.63;;;9.90;99.90;;;;;;4995609;28;20896;-85
2021/12/29 13:42:10;;;;;;;621.70;592.43;;;9.90;99.90;;;;;;4979561;28;20557;-85
2021/12/29 13:44:47;;;;;;;638.13;607.50;;;9.90;99.90;;;;;;4979838;28;20482;-85
2021/12/29 13:47:49;;;;;;;647.53;616.93;;;9.90;99.90;;;;;;4995000;28;20461;-86
2021/12/29 13:50:20;;;;;;;633.83;604.53;;;9.90;99.90;;;;;;4985704;28;20486;-85
2021/12/29 13:53:07;;;;;;;635.67;606.80;;;9.80;99.90;;;;;;4976276;28;20479;-85